sensor_id;sensor_type;location;lat;lon;timestamp;P1;durP1;ratioP1;P2;durP2;ratioP2
3819;SDS011;1925;51.356;9.530;2023-06-22T00:00:31;12.33;;;11.20;;
3819;SDS011;1925;51.356;9.530;2023-06-22T00:02:57;11.80;;;10.80;;
3819;SDS011;1925;51.356;9.530;2023-06-22T00:05:23;14.47;;;13.17;;
3819;SDS011;1925;51.356;9.530;2023-06-22T00:07:49;13.00;;;11.73;;
3819;SDS011;1925;51.356;9.530;2023-06-22T00:10:15;12.40;;;11.30;;
3819;SDS011;1925;51.356;9.530;2023-06-22T00:12:41;12.33;;;11.30;;
3819;SDS011;1925;51.356;9.530;2023-06-22T00:15:07;14.17;;;12.77;;
3819;SDS011;1925;51.356;9.530;2023-06-22T00:17:33;13.17;;;12.03;;
3819;SDS011;1925;51.356;9.530;2023-06-22T00:19:59;12.90;;;11.70;;
3819;SDS011;1925;51.356;9.530;2023-06-22T00:22:25;13.20;;;11.90;;
3819;SDS011;1925;51.356;9.530;2023-06-22T00:24:53;12.77;;;11.47;;
3819;SDS011;1925;51.356;9.530;2023-06-22T00:27:19;13.77;;;12.23;;
3819;SDS011;1925;51.356;9.530;2023-06-22T00:29:45;12.30;;;11.20;;
3819;SDS011;1925;51.356;9.530;2023-06-22T00:32:11;13.33;;;12.17;;
3819;SDS011;1925;51.356;9.530;2023-06-22T00:34:37;12.80;;;11.70;;
3819;SDS011;1925;51.356;9.530;2023-06-22T00:37:03;14.47;;;13.00;;
3819;SDS011;1925;51.356;9.530;2023-06-22T00:39:29;14.30;;;13.10;;
3819;SDS011;1925;51.356;9.530;2023-06-22T00:41:57;15.00;;;13.60;;
3819;SDS011;1925;51.356;9.530;2023-06-22T00:44:24;18.03;;;14.70;;
3819;SDS011;1925;51.356;9.530;2023-06-22T00:46:54;14.03;;;12.77;;
3819;SDS011;1925;51.356;9.530;2023-06-22T00:49:20;14.20;;;12.90;;
3819;SDS011;1925;51.356;9.530;2023-06-22T00:51:46;14.70;;;12.40;;
3819;SDS011;1925;51.356;9.530;2023-06-22T00:54:12;13.73;;;12.43;;
3819;SDS011;1925;51.356;9.530;2023-06-22T00:56:39;14.60;;;13.10;;
3819;SDS011;1925;51.356;9.530;2023-06-22T00:59:05;14.13;;;12.40;;
3819;SDS011;1925;51.356;9.530;2023-06-22T01:01:31;12.57;;;11.37;;
3819;SDS011;1925;51.356;9.530;2023-06-22T01:03:59;13.97;;;12.77;;
3819;SDS011;1925;51.356;9.530;2023-06-22T01:06:26;14.83;;;13.27;;
3819;SDS011;1925;51.356;9.530;2023-06-22T01:08:59;14.10;;;12.73;;
3819;SDS011;1925;51.356;9.530;2023-06-22T01:12:09;13.07;;;11.60;;
3819;SDS011;1925;51.356;9.530;2023-06-22T01:14:18;14.93;;;12.97;;
3819;SDS011;1925;51.356;9.530;2023-06-22T01:16:46;14.90;;;12.53;;
3819;SDS011;1925;51.356;9.530;2023-06-22T01:21:42;12.93;;;11.73;;
3819;SDS011;1925;51.356;9.530;2023-06-22T01:24:14;14.00;;;12.80;;
3819;SDS011;1925;51.356;9.530;2023-06-22T01:26:42;12.60;;;11.50;;
3819;SDS011;1925;51.356;9.530;2023-06-22T01:29:11;14.67;;;11.70;;
3819;SDS011;1925;51.356;9.530;2023-06-22T01:31:38;14.47;;;12.97;;
3819;SDS011;1925;51.356;9.530;2023-06-22T01:34:05;14.90;;;12.83;;
3819;SDS011;1925;51.356;9.530;2023-06-22T01:36:32;14.47;;;12.00;;
3819;SDS011;1925;51.356;9.530;2023-06-22T01:38:59;12.60;;;11.30;;
3819;SDS011;1925;51.356;9.530;2023-06-22T01:41:25;13.27;;;11.83;;
3819;SDS011;1925;51.356;9.530;2023-06-22T01:43:52;12.97;;;11.57;;
3819;SDS011;1925;51.356;9.530;2023-06-22T01:46:19;13.10;;;12.00;;
3819;SDS011;1925;51.356;9.530;2023-06-22T01:48:46;12.83;;;11.70;;
3819;SDS011;1925;51.356;9.530;2023-06-22T01:51:13;12.30;;;11.10;;
3819;SDS011;1925;51.356;9.530;2023-06-22T01:53:39;15.50;;;11.67;;
3819;SDS011;1925;51.356;9.530;2023-06-22T01:56:05;12.43;;;11.20;;
3819;SDS011;1925;51.356;9.530;2023-06-22T01:58:31;14.80;;;12.70;;
3819;SDS011;1925;51.356;9.530;2023-06-22T02:01:09;13.23;;;12.03;;
3819;SDS011;1925;51.356;9.530;2023-06-22T02:03:43;13.53;;;12.33;;
3819;SDS011;1925;51.356;9.530;2023-06-22T02:06:10;14.33;;;12.93;;
3819;SDS011;1925;51.356;9.530;2023-06-22T02:08:40;14.23;;;12.67;;
3819;SDS011;1925;51.356;9.530;2023-06-22T02:11:07;12.73;;;11.43;;
3819;SDS011;1925;51.356;9.530;2023-06-22T02:13:34;12.60;;;11.30;;
3819;SDS011;1925;51.356;9.530;2023-06-22T02:16:00;13.30;;;11.30;;
3819;SDS011;1925;51.356;9.530;2023-06-22T02:18:26;14.33;;;12.73;;
3819;SDS011;1925;51.356;9.530;2023-06-22T02:20:53;13.00;;;11.70;;
3819;SDS011;1925;51.356;9.530;2023-06-22T02:23:19;13.17;;;11.27;;
3819;SDS011;1925;51.356;9.530;2023-06-22T02:25:44;16.40;;;12.10;;
3819;SDS011;1925;51.356;9.530;2023-06-22T02:28:11;12.03;;;10.90;;
3819;SDS011;1925;51.356;9.530;2023-06-22T02:30:37;12.07;;;10.87;;
3819;SDS011;1925;51.356;9.530;2023-06-22T02:33:03;11.83;;;10.73;;
3819;SDS011;1925;51.356;9.530;2023-06-22T02:35:29;12.50;;;11.20;;
3819;SDS011;1925;51.356;9.530;2023-06-22T02:38:00;13.83;;;11.20;;
3819;SDS011;1925;51.356;9.530;2023-06-22T02:40:27;13.83;;;10.93;;
3819;SDS011;1925;51.356;9.530;2023-06-22T02:42:54;11.87;;;10.70;;
3819;SDS011;1925;51.356;9.530;2023-06-22T02:45:20;10.63;;;9.63;;
3819;SDS011;1925;51.356;9.530;2023-06-22T02:47:46;12.80;;;10.90;;
3819;SDS011;1925;51.356;9.530;2023-06-22T02:50:13;12.37;;;11.17;;
3819;SDS011;1925;51.356;9.530;2023-06-22T02:52:39;11.70;;;10.50;;
3819;SDS011;1925;51.356;9.530;2023-06-22T02:55:05;12.10;;;10.90;;
3819;SDS011;1925;51.356;9.530;2023-06-22T02:57:33;10.90;;;10.00;;
3819;SDS011;1925;51.356;9.530;2023-06-22T02:59:59;11.77;;;10.80;;
3819;SDS011;1925;51.356;9.530;2023-06-22T03:02:25;11.83;;;10.80;;
3819;SDS011;1925;51.356;9.530;2023-06-22T03:04:52;11.93;;;10.60;;
3819;SDS011;1925;51.356;9.530;2023-06-22T03:07:18;11.73;;;10.63;;
3819;SDS011;1925;51.356;9.530;2023-06-22T03:09:44;11.30;;;10.10;;
3819;SDS011;1925;51.356;9.530;2023-06-22T03:12:10;15.03;;;12.03;;
3819;SDS011;1925;51.356;9.530;2023-06-22T03:14:36;13.93;;;12.30;;
3819;SDS011;1925;51.356;9.530;2023-06-22T03:17:04;11.57;;;10.47;;
3819;SDS011;1925;51.356;9.530;2023-06-22T03:19:31;12.93;;;10.70;;
3819;SDS011;1925;51.356;9.530;2023-06-22T03:21:57;11.70;;;10.53;;
3819;SDS011;1925;51.356;9.530;2023-06-22T03:24:23;13.63;;;12.20;;
3819;SDS011;1925;51.356;9.530;2023-06-22T03:26:49;11.97;;;10.87;;
3819;SDS011;1925;51.356;9.530;2023-06-22T03:29:15;12.17;;;10.87;;
3819;SDS011;1925;51.356;9.530;2023-06-22T03:31:41;11.13;;;10.03;;
3819;SDS011;1925;51.356;9.530;2023-06-22T03:34:07;12.60;;;11.37;;
3819;SDS011;1925;51.356;9.530;2023-06-22T03:36:33;13.17;;;11.47;;
3819;SDS011;1925;51.356;9.530;2023-06-22T03:38:59;13.67;;;10.83;;
3819;SDS011;1925;51.356;9.530;2023-06-22T03:41:25;12.03;;;10.63;;
3819;SDS011;1925;51.356;9.530;2023-06-22T03:43:51;11.47;;;10.37;;
3819;SDS011;1925;51.356;9.530;2023-06-22T03:46:17;13.57;;;11.40;;
3819;SDS011;1925;51.356;9.530;2023-06-22T03:48:42;12.10;;;10.83;;
3819;SDS011;1925;51.356;9.530;2023-06-22T03:51:08;11.17;;;10.10;;
3819;SDS011;1925;51.356;9.530;2023-06-22T03:53:34;11.60;;;10.40;;
3819;SDS011;1925;51.356;9.530;2023-06-22T03:56:00;12.00;;;10.27;;
3819;SDS011;1925;51.356;9.530;2023-06-22T03:58:26;11.13;;;9.43;;
3819;SDS011;1925;51.356;9.530;2023-06-22T04:00:57;11.50;;;10.50;;
3819;SDS011;1925;51.356;9.530;2023-06-22T04:03:24;11.60;;;10.60;;
3819;SDS011;1925;51.356;9.530;2023-06-22T04:05:50;11.33;;;10.33;;
3819;SDS011;1925;51.356;9.530;2023-06-22T04:08:16;11.93;;;10.10;;
3819;SDS011;1925;51.356;9.530;2023-06-22T04:10:42;12.10;;;11.00;;
3819;SDS011;1925;51.356;9.530;2023-06-22T04:13:08;11.17;;;10.10;;
3819;SDS011;1925;51.356;9.530;2023-06-22T04:15:34;15.57;;;10.57;;
3819;SDS011;1925;51.356;9.530;2023-06-22T04:18:00;13.10;;;11.70;;
3819;SDS011;1925;51.356;9.530;2023-06-22T04:20:26;12.53;;;11.33;;
3819;SDS011;1925;51.356;9.530;2023-06-22T04:22:53;13.43;;;12.07;;
3819;SDS011;1925;51.356;9.530;2023-06-22T04:25:19;13.90;;;12.60;;
3819;SDS011;1925;51.356;9.530;2023-06-22T04:27:45;13.00;;;11.50;;
3819;SDS011;1925;51.356;9.530;2023-06-22T04:30:11;13.37;;;12.00;;
3819;SDS011;1925;51.356;9.530;2023-06-22T04:32:40;12.57;;;11.47;;
3819;SDS011;1925;51.356;9.530;2023-06-22T04:35:06;15.13;;;12.20;;
3819;SDS011;1925;51.356;9.530;2023-06-22T04:37:32;14.70;;;11.83;;
3819;SDS011;1925;51.356;9.530;2023-06-22T04:39:58;16.37;;;11.70;;
3819;SDS011;1925;51.356;9.530;2023-06-22T04:42:27;12.43;;;11.13;;
3819;SDS011;1925;51.356;9.530;2023-06-22T04:44:53;12.17;;;11.17;;
3819;SDS011;1925;51.356;9.530;2023-06-22T04:47:19;12.93;;;11.40;;
3819;SDS011;1925;51.356;9.530;2023-06-22T04:49:45;11.13;;;10.10;;
3819;SDS011;1925;51.356;9.530;2023-06-22T04:52:12;9.97;;;9.07;;
3819;SDS011;1925;51.356;9.530;2023-06-22T04:54:39;12.70;;;11.40;;
3819;SDS011;1925;51.356;9.530;2023-06-22T04:57:12;10.77;;;9.87;;
3819;SDS011;1925;51.356;9.530;2023-06-22T04:59:38;14.87;;;10.37;;
3819;SDS011;1925;51.356;9.530;2023-06-22T05:02:06;11.87;;;9.97;;
3819;SDS011;1925;51.356;9.530;2023-06-22T05:04:32;11.13;;;10.10;;
3819;SDS011;1925;51.356;9.530;2023-06-22T05:06:59;12.60;;;11.50;;
3819;SDS011;1925;51.356;9.530;2023-06-22T05:09:25;11.47;;;10.37;;
3819;SDS011;1925;51.356;9.530;2023-06-22T05:11:51;10.73;;;9.73;;
3819;SDS011;1925;51.356;9.530;2023-06-22T05:14:17;10.87;;;9.90;;
3819;SDS011;1925;51.356;9.530;2023-06-22T05:16:44;10.67;;;9.73;;
3819;SDS011;1925;51.356;9.530;2023-06-22T05:19:10;10.23;;;9.27;;
3819;SDS011;1925;51.356;9.530;2023-06-22T05:21:38;18.23;;;9.70;;
3819;SDS011;1925;51.356;9.530;2023-06-22T05:24:06;10.50;;;9.50;;
3819;SDS011;1925;51.356;9.530;2023-06-22T05:26:33;12.60;;;9.50;;
3819;SDS011;1925;51.356;9.530;2023-06-22T05:29:03;10.60;;;9.60;;
3819;SDS011;1925;51.356;9.530;2023-06-22T05:31:29;10.17;;;9.13;;
3819;SDS011;1925;51.356;9.530;2023-06-22T05:33:55;10.43;;;9.40;;
3819;SDS011;1925;51.356;9.530;2023-06-22T05:36:21;10.67;;;9.40;;
3819;SDS011;1925;51.356;9.530;2023-06-22T05:38:50;16.03;;;10.33;;
3819;SDS011;1925;51.356;9.530;2023-06-22T05:41:16;9.70;;;8.90;;
3819;SDS011;1925;51.356;9.530;2023-06-22T05:43:42;11.40;;;10.40;;
3819;SDS011;1925;51.356;9.530;2023-06-22T05:46:08;11.23;;;10.03;;
3819;SDS011;1925;51.356;9.530;2023-06-22T05:48:33;14.47;;;9.53;;
3819;SDS011;1925;51.356;9.530;2023-06-22T05:50:59;11.93;;;10.17;;
3819;SDS011;1925;51.356;9.530;2023-06-22T05:53:25;10.03;;;8.70;;
3819;SDS011;1925;51.356;9.530;2023-06-22T05:55:51;10.00;;;9.10;;
3819;SDS011;1925;51.356;9.530;2023-06-22T05:58:17;11.17;;;10.17;;
3819;SDS011;1925;51.356;9.530;2023-06-22T06:00:43;12.17;;;11.07;;
3819;SDS011;1925;51.356;9.530;2023-06-22T06:03:10;11.70;;;10.17;;
3819;SDS011;1925;51.356;9.530;2023-06-22T06:05:36;10.77;;;9.83;;
3819;SDS011;1925;51.356;9.530;2023-06-22T06:08:03;11.17;;;10.17;;
3819;SDS011;1925;51.356;9.530;2023-06-22T06:10:30;12.17;;;9.57;;
3819;SDS011;1925;51.356;9.530;2023-06-22T06:12:56;12.13;;;10.93;;
3819;SDS011;1925;51.356;9.530;2023-06-22T06:15:22;11.77;;;10.77;;
3819;SDS011;1925;51.356;9.530;2023-06-22T06:17:49;12.10;;;10.93;;
3819;SDS011;1925;51.356;9.530;2023-06-22T06:20:15;12.00;;;10.90;;
3819;SDS011;1925;51.356;9.530;2023-06-22T06:22:41;18.67;;;11.30;;
3819;SDS011;1925;51.356;9.530;2023-06-22T06:25:08;11.50;;;10.50;;
3819;SDS011;1925;51.356;9.530;2023-06-22T06:27:33;12.47;;;11.33;;
3819;SDS011;1925;51.356;9.530;2023-06-22T06:29:59;11.33;;;10.43;;
3819;SDS011;1925;51.356;9.530;2023-06-22T06:32:25;12.70;;;11.40;;
3819;SDS011;1925;51.356;9.530;2023-06-22T06:34:51;14.27;;;11.50;;
3819;SDS011;1925;51.356;9.530;2023-06-22T06:37:17;12.33;;;11.07;;
3819;SDS011;1925;51.356;9.530;2023-06-22T06:39:43;11.10;;;10.00;;
3819;SDS011;1925;51.356;9.530;2023-06-22T06:42:09;11.43;;;10.33;;
3819;SDS011;1925;51.356;9.530;2023-06-22T06:44:36;12.03;;;10.93;;
3819;SDS011;1925;51.356;9.530;2023-06-22T06:47:03;12.30;;;11.17;;
3819;SDS011;1925;51.356;9.530;2023-06-22T06:49:29;10.83;;;9.63;;
3819;SDS011;1925;51.356;9.530;2023-06-22T06:51:55;11.63;;;10.60;;
3819;SDS011;1925;51.356;9.530;2023-06-22T06:54:21;11.70;;;10.60;;
3819;SDS011;1925;51.356;9.530;2023-06-22T06:56:47;12.57;;;11.47;;
3819;SDS011;1925;51.356;9.530;2023-06-22T06:59:14;11.50;;;10.40;;
3819;SDS011;1925;51.356;9.530;2023-06-22T07:01:40;12.73;;;11.47;;
3819;SDS011;1925;51.356;9.530;2023-06-22T07:04:06;12.53;;;11.50;;
3819;SDS011;1925;51.356;9.530;2023-06-22T07:06:32;13.30;;;10.80;;
3819;SDS011;1925;51.356;9.530;2023-06-22T07:08:58;13.53;;;10.30;;
3819;SDS011;1925;51.356;9.530;2023-06-22T07:11:26;13.23;;;11.70;;
3819;SDS011;1925;51.356;9.530;2023-06-22T07:13:52;11.80;;;10.60;;
3819;SDS011;1925;51.356;9.530;2023-06-22T07:16:18;11.87;;;10.80;;
3819;SDS011;1925;51.356;9.530;2023-06-22T07:18:44;13.50;;;12.23;;
3819;SDS011;1925;51.356;9.530;2023-06-22T07:21:10;11.40;;;10.33;;
3819;SDS011;1925;51.356;9.530;2023-06-22T07:23:36;10.60;;;9.60;;
3819;SDS011;1925;51.356;9.530;2023-06-22T07:26:02;11.00;;;9.90;;
3819;SDS011;1925;51.356;9.530;2023-06-22T07:28:31;11.00;;;10.00;;
3819;SDS011;1925;51.356;9.530;2023-06-22T07:31:02;11.43;;;9.37;;
3819;SDS011;1925;51.356;9.530;2023-06-22T07:33:29;13.80;;;9.80;;
3819;SDS011;1925;51.356;9.530;2023-06-22T07:35:55;11.20;;;10.10;;
3819;SDS011;1925;51.356;9.530;2023-06-22T07:38:21;10.60;;;9.60;;
3819;SDS011;1925;51.356;9.530;2023-06-22T07:40:47;10.13;;;9.07;;
3819;SDS011;1925;51.356;9.530;2023-06-22T07:43:13;10.80;;;9.80;;
3819;SDS011;1925;51.356;9.530;2023-06-22T07:45:38;23.30;;;13.20;;
3819;SDS011;1925;51.356;9.530;2023-06-22T07:48:05;14.00;;;10.87;;
3819;SDS011;1925;51.356;9.530;2023-06-22T07:50:31;11.40;;;10.20;;
3819;SDS011;1925;51.356;9.530;2023-06-22T07:52:57;12.63;;;10.90;;
3819;SDS011;1925;51.356;9.530;2023-06-22T07:55:23;10.43;;;9.53;;
3819;SDS011;1925;51.356;9.530;2023-06-22T07:57:49;11.20;;;10.10;;
3819;SDS011;1925;51.356;9.530;2023-06-22T08:00:16;12.97;;;10.33;;
3819;SDS011;1925;51.356;9.530;2023-06-22T08:02:44;12.30;;;11.20;;
3819;SDS011;1925;51.356;9.530;2023-06-22T08:05:10;16.23;;;10.70;;
3819;SDS011;1925;51.356;9.530;2023-06-22T08:07:36;13.67;;;11.30;;
3819;SDS011;1925;51.356;9.530;2023-06-22T08:10:02;13.80;;;10.90;;
3819;SDS011;1925;51.356;9.530;2023-06-22T08:12:28;12.40;;;11.17;;
3819;SDS011;1925;51.356;9.530;2023-06-22T08:14:54;11.40;;;10.43;;
3819;SDS011;1925;51.356;9.530;2023-06-22T08:17:22;10.73;;;9.57;;
3819;SDS011;1925;51.356;9.530;2023-06-22T08:19:47;10.70;;;9.70;;
3819;SDS011;1925;51.356;9.530;2023-06-22T08:22:13;11.83;;;10.73;;
3819;SDS011;1925;51.356;9.530;2023-06-22T08:24:39;13.67;;;10.60;;
3819;SDS011;1925;51.356;9.530;2023-06-22T08:27:07;12.53;;;11.37;;
3819;SDS011;1925;51.356;9.530;2023-06-22T08:29:39;10.40;;;9.50;;
3819;SDS011;1925;51.356;9.530;2023-06-22T08:32:08;11.63;;;10.47;;
3819;SDS011;1925;51.356;9.530;2023-06-22T08:34:34;10.57;;;9.63;;
3819;SDS011;1925;51.356;9.530;2023-06-22T08:37:00;12.90;;;10.77;;
3819;SDS011;1925;51.356;9.530;2023-06-22T08:39:31;11.30;;;10.10;;
3819;SDS011;1925;51.356;9.530;2023-06-22T08:41:57;13.50;;;11.40;;
3819;SDS011;1925;51.356;9.530;2023-06-22T08:44:23;11.13;;;10.13;;
3819;SDS011;1925;51.356;9.530;2023-06-22T08:46:48;11.17;;;9.87;;
3819;SDS011;1925;51.356;9.530;2023-06-22T08:49:14;10.97;;;10.07;;
3819;SDS011;1925;51.356;9.530;2023-06-22T08:51:40;11.03;;;10.03;;
3819;SDS011;1925;51.356;9.530;2023-06-22T08:54:06;10.33;;;9.43;;
3819;SDS011;1925;51.356;9.530;2023-06-22T08:56:32;10.90;;;10.00;;
3819;SDS011;1925;51.356;9.530;2023-06-22T08:58:58;11.47;;;10.27;;
3819;SDS011;1925;51.356;9.530;2023-06-22T09:01:25;12.47;;;9.80;;
3819;SDS011;1925;51.356;9.530;2023-06-22T09:03:51;9.90;;;8.90;;
3819;SDS011;1925;51.356;9.530;2023-06-22T09:06:20;19.50;;;10.33;;
3819;SDS011;1925;51.356;9.530;2023-06-22T09:08:47;12.73;;;9.70;;
3819;SDS011;1925;51.356;9.530;2023-06-22T09:11:13;13.67;;;10.33;;
3819;SDS011;1925;51.356;9.530;2023-06-22T09:13:39;11.53;;;10.13;;
3819;SDS011;1925;51.356;9.530;2023-06-22T09:16:05;10.20;;;9.30;;
3819;SDS011;1925;51.356;9.530;2023-06-22T09:18:31;11.00;;;10.10;;
3819;SDS011;1925;51.356;9.530;2023-06-22T09:20:57;9.80;;;8.83;;
3819;SDS011;1925;51.356;9.530;2023-06-22T09:23:23;10.03;;;9.03;;
3819;SDS011;1925;51.356;9.530;2023-06-22T09:25:49;18.63;;;9.43;;
3819;SDS011;1925;51.356;9.530;2023-06-22T09:28:15;9.53;;;8.60;;
3819;SDS011;1925;51.356;9.530;2023-06-22T09:30:42;10.13;;;9.20;;
3819;SDS011;1925;51.356;9.530;2023-06-22T09:33:09;12.63;;;8.97;;
3819;SDS011;1925;51.356;9.530;2023-06-22T09:35:35;10.20;;;9.40;;
3819;SDS011;1925;51.356;9.530;2023-06-22T09:38:01;8.97;;;8.27;;
3819;SDS011;1925;51.356;9.530;2023-06-22T09:40:27;9.77;;;8.87;;
3819;SDS011;1925;51.356;9.530;2023-06-22T09:42:53;10.40;;;9.50;;
3819;SDS011;1925;51.356;9.530;2023-06-22T09:45:19;8.73;;;8.03;;
3819;SDS011;1925;51.356;9.530;2023-06-22T09:47:45;9.70;;;9.00;;
3819;SDS011;1925;51.356;9.530;2023-06-22T09:50:11;15.23;;;8.03;;
3819;SDS011;1925;51.356;9.530;2023-06-22T09:52:37;9.43;;;8.53;;
3819;SDS011;1925;51.356;9.530;2023-06-22T09:55:03;11.60;;;9.13;;
3819;SDS011;1925;51.356;9.530;2023-06-22T09:57:29;9.77;;;8.97;;
3819;SDS011;1925;51.356;9.530;2023-06-22T09:59:55;8.87;;;8.17;;
3819;SDS011;1925;51.356;9.530;2023-06-22T10:02:21;9.47;;;8.57;;
3819;SDS011;1925;51.356;9.530;2023-06-22T10:04:47;9.03;;;8.13;;
3819;SDS011;1925;51.356;9.530;2023-06-22T10:07:13;10.17;;;9.17;;
3819;SDS011;1925;51.356;9.530;2023-06-22T10:09:40;8.20;;;7.43;;
3819;SDS011;1925;51.356;9.530;2023-06-22T10:12:06;9.37;;;8.40;;
3819;SDS011;1925;51.356;9.530;2023-06-22T10:14:32;9.03;;;8.10;;
3819;SDS011;1925;51.356;9.530;2023-06-22T10:16:58;8.90;;;7.87;;
3819;SDS011;1925;51.356;9.530;2023-06-22T10:19:24;10.20;;;9.30;;
3819;SDS011;1925;51.356;9.530;2023-06-22T10:21:50;9.03;;;8.23;;
3819;SDS011;1925;51.356;9.530;2023-06-22T10:24:16;11.20;;;8.87;;
3819;SDS011;1925;51.356;9.530;2023-06-22T10:26:42;10.20;;;9.27;;
3819;SDS011;1925;51.356;9.530;2023-06-22T10:29:08;10.27;;;9.30;;
3819;SDS011;1925;51.356;9.530;2023-06-22T10:31:34;13.00;;;9.60;;
3819;SDS011;1925;51.356;9.530;2023-06-22T10:34:00;12.23;;;9.83;;
3819;SDS011;1925;51.356;9.530;2023-06-22T10:36:26;9.93;;;8.87;;
3819;SDS011;1925;51.356;9.530;2023-06-22T10:38:52;11.23;;;8.87;;
3819;SDS011;1925;51.356;9.530;2023-06-22T10:41:18;12.63;;;9.40;;
3819;SDS011;1925;51.356;9.530;2023-06-22T10:43:44;9.83;;;7.63;;
3819;SDS011;1925;51.356;9.530;2023-06-22T10:46:10;7.40;;;6.80;;
3819;SDS011;1925;51.356;9.530;2023-06-22T10:48:36;12.20;;;8.37;;
3819;SDS011;1925;51.356;9.530;2023-06-22T10:51:02;8.97;;;8.10;;
3819;SDS011;1925;51.356;9.530;2023-06-22T10:53:28;7.70;;;7.00;;
3819;SDS011;1925;51.356;9.530;2023-06-22T10:55:54;9.90;;;7.37;;
3819;SDS011;1925;51.356;9.530;2023-06-22T10:58:20;10.00;;;8.03;;
3819;SDS011;1925;51.356;9.530;2023-06-22T11:00:46;20.23;;;8.60;;
3819;SDS011;1925;51.356;9.530;2023-06-22T11:03:11;8.07;;;7.30;;
3819;SDS011;1925;51.356;9.530;2023-06-22T11:05:39;28.97;;;12.20;;
3819;SDS011;1925;51.356;9.530;2023-06-22T11:08:05;13.70;;;9.30;;
3819;SDS011;1925;51.356;9.530;2023-06-22T11:10:31;11.23;;;8.20;;
3819;SDS011;1925;51.356;9.530;2023-06-22T11:12:56;8.47;;;7.77;;
3819;SDS011;1925;51.356;9.530;2023-06-22T11:15:23;9.33;;;8.40;;
3819;SDS011;1925;51.356;9.530;2023-06-22T11:17:48;9.60;;;8.80;;
3819;SDS011;1925;51.356;9.530;2023-06-22T11:20:14;8.53;;;7.77;;
3819;SDS011;1925;51.356;9.530;2023-06-22T11:22:41;8.63;;;7.80;;
3819;SDS011;1925;51.356;9.530;2023-06-22T11:25:07;7.43;;;6.73;;
3819;SDS011;1925;51.356;9.530;2023-06-22T11:27:33;8.87;;;7.87;;
3819;SDS011;1925;51.356;9.530;2023-06-22T11:29:59;8.67;;;7.97;;
3819;SDS011;1925;51.356;9.530;2023-06-22T11:32:26;8.40;;;7.80;;
3819;SDS011;1925;51.356;9.530;2023-06-22T11:34:52;12.00;;;7.80;;
3819;SDS011;1925;51.356;9.530;2023-06-22T11:37:17;9.33;;;8.53;;
3819;SDS011;1925;51.356;9.530;2023-06-22T11:39:43;8.60;;;7.90;;
3819;SDS011;1925;51.356;9.530;2023-06-22T11:42:09;8.03;;;7.43;;
3819;SDS011;1925;51.356;9.530;2023-06-22T11:44:35;8.83;;;8.07;;
3819;SDS011;1925;51.356;9.530;2023-06-22T11:47:01;12.37;;;8.93;;
3819;SDS011;1925;51.356;9.530;2023-06-22T11:49:29;8.70;;;7.83;;
3819;SDS011;1925;51.356;9.530;2023-06-22T11:51:55;17.17;;;9.17;;
3819;SDS011;1925;51.356;9.530;2023-06-22T11:54:21;15.60;;;8.00;;
3819;SDS011;1925;51.356;9.530;2023-06-22T11:56:47;17.40;;;8.33;;
3819;SDS011;1925;51.356;9.530;2023-06-22T11:59:13;9.33;;;8.43;;
3819;SDS011;1925;51.356;9.530;2023-06-22T12:01:39;8.13;;;7.43;;
3819;SDS011;1925;51.356;9.530;2023-06-22T12:04:05;7.60;;;6.83;;
3819;SDS011;1925;51.356;9.530;2023-06-22T12:06:31;13.13;;;7.07;;
3819;SDS011;1925;51.356;9.530;2023-06-22T12:08:58;6.17;;;5.70;;
3819;SDS011;1925;51.356;9.530;2023-06-22T12:11:24;7.80;;;7.10;;
3819;SDS011;1925;51.356;9.530;2023-06-22T12:13:50;17.53;;;8.10;;
3819;SDS011;1925;51.356;9.530;2023-06-22T12:16:16;7.43;;;6.73;;
3819;SDS011;1925;51.356;9.530;2023-06-22T12:18:42;7.57;;;6.77;;
3819;SDS011;1925;51.356;9.530;2023-06-22T12:21:08;6.97;;;6.27;;
3819;SDS011;1925;51.356;9.530;2023-06-22T12:23:34;6.83;;;6.23;;
3819;SDS011;1925;51.356;9.530;2023-06-22T12:25:59;8.00;;;7.40;;
3819;SDS011;1925;51.356;9.530;2023-06-22T12:28:26;7.53;;;7.03;;
3819;SDS011;1925;51.356;9.530;2023-06-22T12:30:52;8.00;;;7.20;;
3819;SDS011;1925;51.356;9.530;2023-06-22T12:33:18;11.63;;;7.13;;
3819;SDS011;1925;51.356;9.530;2023-06-22T12:35:44;7.27;;;6.70;;
3819;SDS011;1925;51.356;9.530;2023-06-22T12:38:10;8.20;;;7.23;;
3819;SDS011;1925;51.356;9.530;2023-06-22T12:40:36;9.07;;;7.33;;
3819;SDS011;1925;51.356;9.530;2023-06-22T12:43:02;7.97;;;7.27;;
3819;SDS011;1925;51.356;9.530;2023-06-22T12:45:28;7.50;;;6.90;;
3819;SDS011;1925;51.356;9.530;2023-06-22T12:47:58;19.97;;;9.57;;
3819;SDS011;1925;51.356;9.530;2023-06-22T12:50:24;9.33;;;7.50;;
3819;SDS011;1925;51.356;9.530;2023-06-22T12:52:50;13.40;;;9.27;;
3819;SDS011;1925;51.356;9.530;2023-06-22T12:55:16;8.63;;;7.67;;
3819;SDS011;1925;51.356;9.530;2023-06-22T12:57:42;8.10;;;7.30;;
3819;SDS011;1925;51.356;9.530;2023-06-22T13:00:08;7.80;;;7.10;;
3819;SDS011;1925;51.356;9.530;2023-06-22T13:02:35;7.70;;;7.10;;
3819;SDS011;1925;51.356;9.530;2023-06-22T13:05:02;8.30;;;7.10;;
3819;SDS011;1925;51.356;9.530;2023-06-22T13:07:30;7.57;;;6.97;;
3819;SDS011;1925;51.356;9.530;2023-06-22T13:09:56;8.50;;;7.60;;
3819;SDS011;1925;51.356;9.530;2023-06-22T13:12:22;8.13;;;7.43;;
3819;SDS011;1925;51.356;9.530;2023-06-22T13:14:48;8.90;;;7.97;;
3819;SDS011;1925;51.356;9.530;2023-06-22T13:17:14;8.50;;;7.70;;
3819;SDS011;1925;51.356;9.530;2023-06-22T13:19:40;9.60;;;8.07;;
3819;SDS011;1925;51.356;9.530;2023-06-22T13:22:09;8.70;;;7.60;;
3819;SDS011;1925;51.356;9.530;2023-06-22T13:24:51;16.83;;;10.20;;
3819;SDS011;1925;51.356;9.530;2023-06-22T13:27:17;25.67;;;10.00;;
3819;SDS011;1925;51.356;9.530;2023-06-22T13:29:42;14.03;;;9.10;;
3819;SDS011;1925;51.356;9.530;2023-06-22T13:32:08;9.97;;;8.93;;
3819;SDS011;1925;51.356;9.530;2023-06-22T13:34:34;8.80;;;8.10;;
3819;SDS011;1925;51.356;9.530;2023-06-22T13:37:00;8.03;;;7.37;;
3819;SDS011;1925;51.356;9.530;2023-06-22T13:39:26;9.30;;;8.47;;
3819;SDS011;1925;51.356;9.530;2023-06-22T13:41:52;9.53;;;8.50;;
3819;SDS011;1925;51.356;9.530;2023-06-22T13:44:18;9.43;;;8.10;;
3819;SDS011;1925;51.356;9.530;2023-06-22T13:46:46;8.00;;;7.30;;
3819;SDS011;1925;51.356;9.530;2023-06-22T13:49:12;8.97;;;8.17;;
3819;SDS011;1925;51.356;9.530;2023-06-22T13:51:38;9.70;;;8.63;;
3819;SDS011;1925;51.356;9.530;2023-06-22T13:54:04;14.40;;;8.00;;
3819;SDS011;1925;51.356;9.530;2023-06-22T13:56:30;9.83;;;8.90;;
3819;SDS011;1925;51.356;9.530;2023-06-22T13:58:56;21.23;;;10.47;;
3819;SDS011;1925;51.356;9.530;2023-06-22T14:01:21;42.60;;;14.70;;
3819;SDS011;1925;51.356;9.530;2023-06-22T14:03:47;11.43;;;8.73;;
3819;SDS011;1925;51.356;9.530;2023-06-22T14:06:14;10.93;;;8.63;;
3819;SDS011;1925;51.356;9.530;2023-06-22T14:08:40;10.50;;;8.83;;
3819;SDS011;1925;51.356;9.530;2023-06-22T14:11:05;8.10;;;7.50;;
3819;SDS011;1925;51.356;9.530;2023-06-22T14:13:31;9.30;;;8.37;;
3819;SDS011;1925;51.356;9.530;2023-06-22T14:15:57;34.77;;;11.10;;
3819;SDS011;1925;51.356;9.530;2023-06-22T14:18:23;11.80;;;9.00;;
3819;SDS011;1925;51.356;9.530;2023-06-22T14:20:49;14.10;;;9.67;;
3819;SDS011;1925;51.356;9.530;2023-06-22T14:23:15;17.23;;;11.80;;
3819;SDS011;1925;51.356;9.530;2023-06-22T14:25:41;12.70;;;9.53;;
3819;SDS011;1925;51.356;9.530;2023-06-22T14:28:07;13.53;;;9.60;;
3819;SDS011;1925;51.356;9.530;2023-06-22T14:30:33;10.30;;;8.43;;
3819;SDS011;1925;51.356;9.530;2023-06-22T14:32:59;9.57;;;8.57;;
3819;SDS011;1925;51.356;9.530;2023-06-22T14:35:25;9.50;;;8.50;;
3819;SDS011;1925;51.356;9.530;2023-06-22T14:37:51;9.63;;;8.63;;
3819;SDS011;1925;51.356;9.530;2023-06-22T14:40:17;10.27;;;4.07;;
3819;SDS011;1925;51.356;9.530;2023-06-22T14:42:43;6.60;;;3.20;;
3819;SDS011;1925;51.356;9.530;2023-06-22T14:45:09;11.50;;;4.40;;
3819;SDS011;1925;51.356;9.530;2023-06-22T14:47:35;7.67;;;3.93;;
3819;SDS011;1925;51.356;9.530;2023-06-22T14:50:01;6.60;;;4.63;;
3819;SDS011;1925;51.356;9.530;2023-06-22T14:52:26;9.30;;;4.83;;
3819;SDS011;1925;51.356;9.530;2023-06-22T14:54:53;8.80;;;5.50;;